This demonstration page uses our WeatherBlox Daily Observations layout. Learn more.

39.01783, -85.05884

Hourly Observations for March 16, 2019

Temp ( °F °C ) Dew Point ( °F °C ) Humidity (%) Winds ( mph kmh ) Pressure ( in mb ) Visibility ( mi km ) Precip ( " mm )
12:52 am 00:52 Clear 35 1.7 28 -2.2 76 76 WSW 6 9 30.24 1024 10 16.09344 0 0
1:52 am 01:52 Partly Cloudy 34 1.1 27 -2.8 76 76 WSW 5 7 30.24 1024 10 16.09344 0 0
2:52 am 02:52 Mostly Clear 33 0.6 26 -3.3 75 75 SW 5 7 30.24 1024 10 16.09344 0 0
3:52 am 03:52 Partly Cloudy 33 0.6 26 -3.3 75 75 WSW 5 7 30.24 1024 10 16.09344 0 0
4:52 am 04:52 Clear 33 0.6 25 -3.9 72 72 WSW 6 9 30.24 1024 10 16.09344 0 0
5:52 am 05:52 Clear 32 0 25 -3.9 75 75 W 9 15 30.24 1024 10 16.09344 0 0
6:52 am 06:52 Clear 31 -0.6 24 -4.4 76 76 SW 5 7 30.27 1025 10 16.09344 0 0
7:52 am 07:52 Sunny 30 -1.1 23 -5 75 75 W 10 17 30.3 1026 10 16.09344 0 0
8:52 am 08:52 Mostly Sunny 33 0.6 26 -3.3 75 75 WNW 8 13 30.3 1026 10 16.09344 0 0
9:52 am 09:52 Partly Cloudy 35 1.7 24 -4.4 64 64 WNW 15 24 30.33 1027 10 16.09344 0 0
10:52 am 10:52 Partly Cloudy 37 2.8 25 -3.9 62 62 NW 13 20 30.33 1027 10 16.09344 0 0
11:52 am 11:52 Partly Cloudy 39 3.9 25 -3.9 57 57 WNW 15 24 30.36 1028 10 16.09344 0 0
12:52 pm 12:52 Partly Cloudy 41 5 25 -3.9 53 53 W 12 19 30.33 1027 10 16.09344 0 0
1:52 pm 13:52 Partly Cloudy 43 6.1 24 -4.4 47 47 W 12 19 30.33 1027 10 16.09344 0 0
2:52 pm 14:52 Partly Cloudy 44 6.7 25 -3.9 47 47 W 9 15 30.3 1026 10 16.09344 0 0
3:52 pm 15:52 Partly Cloudy 46 7.8 24 -4.4 42 42 WNW 16 26 30.3 1026 10 16.09344 0 0
4:52 pm 16:52 Partly Cloudy 46 7.8 21 -6.1 37 37 NW 18 30 30.3 1026 10 16.09344 0 0
5:52 pm 17:52 Mostly Sunny 45 7.2 20 -6.7 37 37 NW 12 19 30.3 1026 10 16.09344 0 0
6:52 pm 18:52 Mostly Sunny 44 6.7 20 -6.7 38 38 NW 12 19 30.3 1026 10 16.09344 0 0
7:52 pm 19:52 Mostly Clear 41 5 21 -6.1 45 45 NNW 6 9 30.3 1026 10 16.09344 0 0
8:52 pm 20:52 Clear 40 4.4 20 -6.7 45 45 NNW 6 9 30.3 1026 10 16.09344 0 0
9:52 pm 21:52 Clear 38 3.3 20 -6.7 48 48 NNW 6 9 30.3 1026 10 16.09344 0 0
10:52 pm 22:52 Clear 34 1.1 21 -6.1 59 59 NNW 5 7 30.3 1026 10 16.09344 0 0
11:52 pm 23:52 Clear 36 2.2 21 -6.1 55 55 N 6 9 30.3 1026 10 16.09344 0 0

Powered by AerisWeather